Time;durP1;ratioP1;P1;durP2;ratioP2;P2;SDS_P1;SDS_P2;PMS_P1;PMS_P2;Temp;Humidity;BMP_temperature;BMP_pressure;BME280_temperature;BME280_humidity;BME280_pressure;Samples;Min_cycle;Max_cycle;Signal;HPM_P1;HPM_P2
2023/12/01 00:01:20;;;;;;;8.40;6.30;;;;;;;;;;6276690;22;20256;-54
2023/12/01 00:03:48;;;;;;;8.93;6.53;;;;;;;;;;6277296;22;20152;-53
2023/12/01 00:06:14;;;;;;;10.67;7.30;;;;;;;;;;6274230;22;20615;-56
2023/12/01 00:08:40;;;;;;;10.53;6.77;;;;;;;;;;6275581;22;20140;-49
2023/12/01 00:11:06;;;;;;;13.47;7.13;;;;;;;;;;6274625;22;20492;-49
2023/12/01 00:13:32;;;;;;;12.27;6.57;;;;;;;;;;6273557;22;20144;-51
2023/12/01 00:15:58;;;;;;;10.67;6.90;;;;;;;;;;6271134;22;20171;-55
2023/12/01 00:18:24;;;;;;;10.60;7.27;;;;;;;;;;6273057;22;20226;-56
2023/12/01 00:20:51;;;;;;;11.37;7.57;;;;;;;;;;6273498;22;20183;-53
2023/12/01 00:23:19;;;;;;;11.77;7.87;;;;;;;;;;6275063;22;20502;-56
2023/12/01 00:25:45;;;;;;;11.17;7.57;;;;;;;;;;6273518;22;20148;-52
2023/12/01 00:28:11;;;;;;;10.30;7.47;;;;;;;;;;6271257;22;20199;-52
2023/12/01 00:30:37;;;;;;;11.37;6.97;;;;;;;;;;6270206;22;20144;-48
2023/12/01 00:33:03;;;;;;;10.53;7.10;;;;;;;;;;6269878;22;20156;-51
2023/12/01 00:35:30;;;;;;;10.20;6.70;;;;;;;;;;6272020;22;20144;-53
2023/12/01 00:37:56;;;;;;;11.20;6.70;;;;;;;;;;6271379;22;20135;-53
2023/12/01 00:40:23;;;;;;;11.13;7.40;;;;;;;;;;6270283;22;20164;-51
2023/12/01 00:42:49;;;;;;;8.53;6.93;;;;;;;;;;6271830;22;20167;-52
2023/12/01 00:45:15;;;;;;;11.77;7.13;;;;;;;;;;6271479;22;20136;-51
2023/12/01 00:47:41;;;;;;;10.10;7.77;;;;;;;;;;6271412;22;20494;-51
2023/12/01 00:50:09;;;;;;;11.57;7.27;;;;;;;;;;6271421;22;20159;-47
2023/12/01 00:52:35;;;;;;;12.00;7.87;;;;;;;;;;6271136;22;20144;-50
2023/12/01 00:55:01;;;;;;;10.17;7.40;;;;;;;;;;6271252;22;20422;-49
2023/12/01 00:57:27;;;;;;;10.57;7.70;;;;;;;;;;6270075;22;20343;-49
2023/12/01 00:59:53;;;;;;;12.50;8.27;;;;;;;;;;6289659;22;20331;-51
2023/12/01 01:02:19;;;;;;;9.47;7.67;;;;;;;;;;6275045;22;20139;-52
2023/12/01 01:04:45;;;;;;;9.77;7.20;;;;;;;;;;6302444;22;20537;-51
2023/12/01 01:07:12;;;;;;;11.27;7.83;;;;;;;;;;6275148;22;20146;-54
2023/12/01 01:09:38;;;;;;;10.87;8.17;;;;;;;;;;6275667;22;20148;-50
2023/12/01 01:12:04;;;;;;;11.30;8.20;;;;;;;;;;6275313;22;20467;-50
2023/12/01 01:14:30;;;;;;;10.43;7.43;;;;;;;;;;6302706;22;20194;-50
2023/12/01 01:16:57;;;;;;;11.33;7.87;;;;;;;;;;6275185;22;20143;-49
2023/12/01 01:19:23;;;;;;;9.83;7.00;;;;;;;;;;6274799;22;20147;-48
2023/12/01 01:21:49;;;;;;;12.43;8.77;;;;;;;;;;6275894;22;20201;-54
2023/12/01 01:24:15;;;;;;;11.37;8.53;;;;;;;;;;6275704;22;20135;-47
2023/12/01 01:26:41;;;;;;;13.43;7.97;;;;;;;;;;6276885;22;20135;-50
2023/12/01 01:29:08;;;;;;;12.97;7.83;;;;;;;;;;6275271;22;20136;-49
2023/12/01 01:31:34;;;;;;;12.77;8.60;;;;;;;;;;6279764;22;20202;-47
2023/12/01 01:34:00;;;;;;;12.27;8.60;;;;;;;;;;6306142;22;20404;-47
2023/12/01 01:36:26;;;;;;;14.20;8.47;;;;;;;;;;6278029;22;20159;-49
2023/12/01 01:38:52;;;;;;;11.53;8.07;;;;;;;;;;6276870;22;20143;-52
2023/12/01 01:41:18;;;;;;;13.83;9.37;;;;;;;;;;6275287;22;20611;-55
2023/12/01 01:43:44;;;;;;;11.90;7.63;;;;;;;;;;6275114;22;20144;-53
2023/12/01 01:46:11;;;;;;;13.83;8.53;;;;;;;;;;6302056;22;20135;-51
2023/12/01 01:48:38;;;;;;;13.17;7.93;;;;;;;;;;6301857;22;20143;-52
2023/12/01 01:51:09;;;;;;;12.87;9.17;;;;;;;;;;6275159;22;20144;-52
2023/12/01 01:53:37;;;;;;;12.00;8.53;;;;;;;;;;6276125;22;20410;-49
2023/12/01 01:56:03;;;;;;;11.80;8.00;;;;;;;;;;6275860;22;20151;-48
2023/12/01 01:58:30;;;;;;;14.07;9.00;;;;;;;;;;6303196;22;20128;-51
2023/12/01 02:00:56;;;;;;;11.17;7.83;;;;;;;;;;6276641;22;20255;-52
2023/12/01 02:03:23;;;;;;;11.00;7.50;;;;;;;;;;6275839;22;20147;-50
2023/12/01 02:05:50;;;;;;;12.10;7.90;;;;;;;;;;6277918;22;20151;-52
2023/12/01 02:08:22;;;;;;;13.47;8.47;;;;;;;;;;6276434;22;20537;-48
2023/12/01 02:10:49;;;;;;;10.00;7.87;;;;;;;;;;6277444;22;20139;-53
2023/12/01 02:13:15;;;;;;;16.50;8.93;;;;;;;;;;6305040;22;20127;-50
2023/12/01 02:15:42;;;;;;;11.83;8.17;;;;;;;;;;6279220;22;20322;-48
2023/12/01 02:18:20;;;;;;;11.13;7.83;;;;;;;;;;6278475;22;20151;-48
2023/12/01 02:20:46;;;;;;;12.37;8.03;;;;;;;;;;6278600;22;20194;-49
2023/12/01 02:23:12;;;;;;;12.43;7.47;;;;;;;;;;6277241;22;20167;-50
2023/12/01 02:25:38;;;;;;;13.20;8.50;;;;;;;;;;6275980;22;20135;-49
2023/12/01 02:28:05;;;;;;;10.60;7.53;;;;;;;;;;6275747;22;20140;-52
2023/12/01 02:30:31;;;;;;;15.67;8.37;;;;;;;;;;6275131;22;20197;-53
2023/12/01 02:32:57;;;;;;;13.10;8.67;;;;;;;;;;6302231;22;20148;-49
2023/12/01 02:35:29;;;;;;;13.17;8.50;;;;;;;;;;6304226;22;20501;-50
2023/12/01 02:37:56;;;;;;;13.00;8.77;;;;;;;;;;6276546;22;20196;-52
2023/12/01 02:40:23;;;;;;;13.87;7.47;;;;;;;;;;6277552;22;20252;-49
2023/12/01 02:42:50;;;;;;;10.37;7.70;;;;;;;;;;6303979;22;20146;-49
2023/12/01 02:45:16;;;;;;;14.30;8.40;;;;;;;;;;6277952;22;20144;-50
2023/12/01 02:47:45;;;;;;;11.63;8.13;;;;;;;;;;6278131;22;20171;-52
2023/12/01 02:50:12;;;;;;;15.00;8.07;;;;;;;;;;6278563;22;20204;-50
2023/12/01 02:52:38;;;;;;;11.67;7.70;;;;;;;;;;6304594;22;20136;-50
2023/12/01 02:55:07;;;;;;;12.83;8.07;;;;;;;;;;6277587;22;20175;-50
2023/12/01 02:57:34;;;;;;;13.57;8.93;;;;;;;;;;6275299;22;20158;-53
2023/12/01 03:00:01;;;;;;;12.17;8.60;;;;;;;;;;6269808;22;20187;-48
2023/12/01 03:02:28;;;;;;;15.33;8.27;;;;;;;;;;6270707;22;20355;-48
2023/12/01 03:04:54;;;;;;;13.90;9.10;;;;;;;;;;6270861;22;20315;-52
2023/12/01 03:07:20;;;;;;;13.27;9.43;;;;;;;;;;6269955;22;20136;-51
2023/12/01 03:09:46;;;;;;;16.00;9.30;;;;;;;;;;6271167;22;20183;-49
2023/12/01 03:12:12;;;;;;;11.63;7.87;;;;;;;;;;6270894;22;20144;-49
2023/12/01 03:14:38;;;;;;;12.20;8.43;;;;;;;;;;6272370;22;20140;-55
2023/12/01 03:17:04;;;;;;;13.20;8.90;;;;;;;;;;6272147;22;20151;-52
2023/12/01 03:19:30;;;;;;;14.63;9.60;;;;;;;;;;6271426;22;20263;-51
2023/12/01 03:21:57;;;;;;;12.60;8.87;;;;;;;;;;6273898;22;20314;-51
2023/12/01 03:24:23;;;;;;;15.70;9.73;;;;;;;;;;6273556;22;20132;-53
2023/12/01 03:26:49;;;;;;;14.83;9.20;;;;;;;;;;6273312;22;20168;-49
2023/12/01 03:29:15;;;;;;;15.37;9.33;;;;;;;;;;6272440;22;20469;-50
2023/12/01 03:31:41;;;;;;;12.03;8.17;;;;;;;;;;6271474;22;20140;-51
2023/12/01 03:34:07;;;;;;;16.63;9.20;;;;;;;;;;6274444;22;20144;-50
2023/12/01 03:36:33;;;;;;;15.03;8.90;;;;;;;;;;6273309;22;20133;-53
2023/12/01 03:38:59;;;;;;;15.00;9.90;;;;;;;;;;6272429;22;20143;-51
2023/12/01 03:41:25;;;;;;;12.67;8.90;;;;;;;;;;6271714;22;20196;-49
2023/12/01 03:43:51;;;;;;;11.93;8.87;;;;;;;;;;6271198;22;20132;-55
2023/12/01 03:46:17;;;;;;;16.27;10.30;;;;;;;;;;6271456;22;20568;-50
2023/12/01 03:48:43;;;;;;;15.20;10.20;;;;;;;;;;6271492;22;20329;-51
2023/12/01 03:51:11;;;;;;;13.57;9.53;;;;;;;;;;6271754;22;20168;-53
2023/12/01 03:53:37;;;;;;;14.73;9.57;;;;;;;;;;6270985;22;20219;-50
2023/12/01 03:56:04;;;;;;;16.33;10.67;;;;;;;;;;6272798;22;20133;-49
2023/12/01 03:58:30;;;;;;;15.93;11.23;;;;;;;;;;6272727;22;20147;-50
2023/12/01 04:00:56;;;;;;;13.93;9.17;;;;;;;;;;6276690;22;20266;-55
2023/12/01 04:03:24;;;;;;;13.80;9.57;;;;;;;;;;6276754;22;20143;-52
2023/12/01 04:05:50;;;;;;;14.90;9.73;;;;;;;;;;6276102;22;20166;-50
2023/12/01 04:08:16;;;;;;;14.93;9.73;;;;;;;;;;6299983;22;20124;-53
2023/12/01 04:10:42;;;;;;;15.93;10.27;;;;;;;;;;6271567;22;20238;-49
2023/12/01 04:13:09;;;;;;;17.57;11.27;;;;;;;;;;6297694;22;20639;-50
2023/12/01 04:15:39;;;;;;;14.50;9.77;;;;;;;;;;6298510;22;20606;-51
2023/12/01 04:18:08;;;;;;;15.63;10.10;;;;;;;;;;6270735;22;20220;-50
2023/12/01 04:20:40;;;;;;;12.83;9.57;;;;;;;;;;6270228;22;20189;-52
2023/12/01 04:23:10;;;;;;;18.87;10.53;;;;;;;;;;6270246;22;20132;-50
2023/12/01 04:25:37;;;;;;;15.13;10.03;;;;;;;;;;6271488;22;20653;-49
2023/12/01 04:28:03;;;;;;;18.03;10.27;;;;;;;;;;6272205;22;20159;-48
2023/12/01 04:30:29;;;;;;;15.47;9.97;;;;;;;;;;6299744;22;20461;-52
2023/12/01 04:32:56;;;;;;;14.20;9.27;;;;;;;;;;6273355;22;20380;-48
2023/12/01 04:35:32;;;;;;;18.83;10.40;;;;;;;;;;6275142;22;20156;-50
2023/12/01 04:38:29;;;;;;;17.97;10.70;;;;;;;;;;6280572;22;20149;-51
2023/12/01 04:40:55;;;;;;;17.23;10.13;;;;;;;;;;6276270;22;20167;-50
2023/12/01 04:43:21;;;;;;;16.70;9.67;;;;;;;;;;6302505;22;20128;-49
2023/12/01 04:45:47;;;;;;;14.93;9.30;;;;;;;;;;6303016;22;20120;-52
2023/12/01 04:48:13;;;;;;;13.27;9.23;;;;;;;;;;6276222;22;20170;-52
2023/12/01 04:50:46;;;;;;;15.33;10.30;;;;;;;;;;6277199;22;20179;-55
2023/12/01 04:53:12;;;;;;;16.47;10.73;;;;;;;;;;6276627;22;20163;-55
2023/12/01 04:55:38;;;;;;;17.20;10.77;;;;;;;;;;6303199;22;20513;-50
2023/12/01 04:58:04;;;;;;;16.73;10.00;;;;;;;;;;6276542;22;20165;-48
2023/12/01 05:00:30;;;;;;;15.63;10.83;;;;;;;;;;6269583;22;20244;-55
2023/12/01 05:02:58;;;;;;;13.20;9.63;;;;;;;;;;6271217;22;20406;-50
2023/12/01 05:05:28;;;;;;;13.07;9.37;;;;;;;;;;6269680;22;20144;-49
2023/12/01 05:07:57;;;;;;;15.07;9.53;;;;;;;;;;6268430;22;20642;-51
2023/12/01 05:10:24;;;;;;;14.23;9.23;;;;;;;;;;6270492;22;20125;-49
2023/12/01 05:12:51;;;;;;;16.20;9.27;;;;;;;;;;6269024;22;20171;-53
2023/12/01 05:15:22;;;;;;;14.77;9.30;;;;;;;;;;6268788;22;20144;-48
2023/12/01 05:17:55;;;;;;;16.67;10.60;;;;;;;;;;6273900;22;20533;-53
2023/12/01 05:20:23;;;;;;;14.50;9.53;;;;;;;;;;6274029;22;20172;-53
2023/12/01 05:22:50;;;;;;;17.17;10.57;;;;;;;;;;6275181;22;20139;-53
2023/12/01 05:25:18;;;;;;;17.13;10.40;;;;;;;;;;6274436;22;20222;-53
2023/12/01 05:27:51;;;;;;;17.07;10.33;;;;;;;;;;6275708;22;20129;-52
2023/12/01 05:30:18;;;;;;;13.43;8.60;;;;;;;;;;6274443;22;20219;-52
2023/12/01 05:32:45;;;;;;;17.03;10.23;;;;;;;;;;6276050;22;20152;-49
2023/12/01 05:35:12;;;;;;;19.23;10.00;;;;;;;;;;6274563;22;20665;-49
2023/12/01 05:37:39;;;;;;;15.43;10.00;;;;;;;;;;6275112;22;20163;-51
2023/12/01 05:40:15;;;;;;;14.63;9.47;;;;;;;;;;6275494;22;20199;-51
2023/12/01 05:42:42;;;;;;;14.80;9.17;;;;;;;;;;6274464;22;20286;-50
2023/12/01 05:45:11;;;;;;;16.17;10.23;;;;;;;;;;6273817;22;20147;-50
2023/12/01 05:47:42;;;;;;;14.33;9.10;;;;;;;;;;6272686;22;20155;-53
2023/12/01 05:50:12;;;;;;;20.60;10.60;;;;;;;;;;6273446;22;20227;-51
2023/12/01 05:52:39;;;;;;;14.23;9.03;;;;;;;;;;6272570;22;20136;-55
2023/12/01 05:55:10;;;;;;;14.10;8.63;;;;;;;;;;6273516;22;20598;-52
2023/12/01 05:57:37;;;;;;;17.00;10.33;;;;;;;;;;6274120;22;20140;-49
2023/12/01 06:00:04;;;;;;;14.03;8.40;;;;;;;;;;6273151;22;20578;-55
2023/12/01 06:02:30;;;;;;;14.33;9.37;;;;;;;;;;6273761;22;20159;-54
2023/12/01 06:04:57;;;;;;;14.83;9.40;;;;;;;;;;6275411;22;20215;-52
2023/12/01 06:07:24;;;;;;;15.50;8.63;;;;;;;;;;6275670;22;20203;-54
2023/12/01 06:09:50;;;;;;;17.17;9.73;;;;;;;;;;6273845;22;20252;-50
2023/12/01 06:12:16;;;;;;;16.53;8.37;;;;;;;;;;6274088;22;20148;-51
2023/12/01 06:14:42;;;;;;;15.60;10.17;;;;;;;;;;6275255;22;20136;-50
2023/12/01 06:17:08;;;;;;;19.27;9.47;;;;;;;;;;6276047;22;20140;-51
2023/12/01 06:19:34;;;;;;;16.67;10.00;;;;;;;;;;6276459;22;20144;-49
2023/12/01 06:22:00;;;;;;;15.50;8.97;;;;;;;;;;6275893;22;20541;-53
2023/12/01 06:24:27;;;;;;;19.97;11.47;;;;;;;;;;6277073;22;20148;-48
2023/12/01 06:26:53;;;;;;;18.37;10.63;;;;;;;;;;6276266;22;20136;-54
2023/12/01 06:29:26;;;;;;;19.10;11.03;;;;;;;;;;6276880;22;20137;-49
2023/12/01 06:31:52;;;;;;;18.17;11.30;;;;;;;;;;6275218;22;20136;-53
2023/12/01 06:34:18;;;;;;;22.30;11.13;;;;;;;;;;6274839;22;20500;-52
2023/12/01 06:36:44;;;;;;;17.17;10.07;;;;;;;;;;6274272;22;20141;-53
2023/12/01 06:39:10;;;;;;;20.50;10.40;;;;;;;;;;6264846;22;20146;-48
2023/12/01 06:41:37;;;;;;;16.60;10.40;;;;;;;;;;6264270;22;20255;-51
2023/12/01 06:44:03;;;;;;;17.10;10.10;;;;;;;;;;6266827;22;20499;-54
2023/12/01 06:46:30;;;;;;;22.50;11.03;;;;;;;;;;6269005;22;20120;-53
2023/12/01 06:48:56;;;;;;;26.20;11.73;;;;;;;;;;6268626;22;20152;-51
2023/12/01 06:51:23;;;;;;;19.10;10.27;;;;;;;;;;6265078;22;20246;-50
2023/12/01 06:53:49;;;;;;;21.80;11.23;;;;;;;;;;6262446;22;20144;-53
2023/12/01 06:56:15;;;;;;;20.40;11.50;;;;;;;;;;6264475;22;20392;-50
2023/12/01 06:58:41;;;;;;;20.27;11.23;;;;;;;;;;6265475;22;20129;-52
2023/12/01 07:01:07;;;;;;;19.93;11.30;;;;;;;;;;6294284;22;20156;-48
2023/12/01 07:03:33;;;;;;;18.03;10.73;;;;;;;;;;6266827;22;20513;-52
2023/12/01 07:05:59;;;;;;;19.13;10.77;;;;;;;;;;6296900;22;20280;-51
2023/12/01 07:08:25;;;;;;;18.73;11.07;;;;;;;;;;6268475;22;20151;-53
2023/12/01 07:10:51;;;;;;;18.20;11.30;;;;;;;;;;6294286;22;20133;-49
2023/12/01 07:13:17;;;;;;;18.70;10.70;;;;;;;;;;6268295;22;20144;-50
2023/12/01 07:15:44;;;;;;;19.83;11.30;;;;;;;;;;6272848;22;20158;-53
2023/12/01 07:18:10;;;;;;;20.87;12.53;;;;;;;;;;6278626;22;20147;-56
2023/12/01 07:20:36;;;;;;;20.57;10.93;;;;;;;;;;6278511;22;20210;-51
2023/12/01 07:23:02;;;;;;;17.47;10.40;;;;;;;;;;6278402;22;20437;-50
2023/12/01 07:25:28;;;;;;;19.70;11.60;;;;;;;;;;6278965;22;20143;-50
2023/12/01 07:27:55;;;;;;;21.73;11.07;;;;;;;;;;6275929;22;20218;-52
2023/12/01 07:30:21;;;;;;;18.93;10.97;;;;;;;;;;6276638;22;20143;-54
2023/12/01 07:32:48;;;;;;;19.57;11.83;;;;;;;;;;6276812;22;20185;-52
2023/12/01 07:35:15;;;;;;;20.57;11.97;;;;;;;;;;6276896;22;20148;-52
2023/12/01 07:37:45;;;;;;;20.20;12.00;;;;;;;;;;6277031;22;20151;-51
2023/12/01 07:40:12;;;;;;;22.10;12.23;;;;;;;;;;6278564;22;20178;-55
2023/12/01 07:42:40;;;;;;;23.47;12.80;;;;;;;;;;6276627;22;20193;-52
2023/12/01 07:45:07;;;;;;;23.23;11.63;;;;;;;;;;6277209;22;20144;-53
2023/12/01 07:47:33;;;;;;;19.47;11.17;;;;;;;;;;6276839;22;20179;-48
2023/12/01 07:50:00;;;;;;;19.70;11.70;;;;;;;;;;6303472;22;20731;-54
2023/12/01 07:52:26;;;;;;;19.10;11.40;;;;;;;;;;6304408;22;20139;-49
2023/12/01 07:54:52;;;;;;;21.97;11.93;;;;;;;;;;6305365;22;20128;-52
2023/12/01 07:57:18;;;;;;;20.93;12.57;;;;;;;;;;6278389;22;20155;-50
2023/12/01 07:59:44;;;;;;;20.67;11.63;;;;;;;;;;6272850;22;20188;-52
2023/12/01 08:02:10;;;;;;;23.30;11.80;;;;;;;;;;6272072;22;20141;-49
2023/12/01 08:04:36;;;;;;;19.90;11.83;;;;;;;;;;6269815;22;20148;-50
2023/12/01 08:07:03;;;;;;;20.07;11.53;;;;;;;;;;6272996;22;20140;-55
2023/12/01 08:09:31;;;;;;;20.27;11.40;;;;;;;;;;6272419;22;20152;-50
2023/12/01 08:12:04;;;;;;;21.80;11.77;;;;;;;;;;6273412;22;20144;-54
2023/12/01 08:14:30;;;;;;;19.87;11.43;;;;;;;;;;6272910;22;20144;-53
2023/12/01 08:16:56;;;;;;;20.10;11.17;;;;;;;;;;6273060;22;20148;-53
2023/12/01 08:19:22;;;;;;;21.77;12.53;;;;;;;;;;6272896;22;20152;-50
2023/12/01 08:21:49;;;;;;;20.67;11.67;;;;;;;;;;6272997;22;20207;-51
2023/12/01 08:24:17;;;;;;;25.97;12.13;;;;;;;;;;6274689;22;20132;-53
2023/12/01 08:26:43;;;;;;;20.07;11.73;;;;;;;;;;6276270;22;20163;-50
2023/12/01 08:29:09;;;;;;;18.67;10.57;;;;;;;;;;6274924;22;20141;-53
2023/12/01 08:31:36;;;;;;;22.33;13.23;;;;;;;;;;6274965;22;20215;-51
2023/12/01 08:34:02;;;;;;;22.20;12.57;;;;;;;;;;6272630;22;20152;-52
2023/12/01 08:36:28;;;;;;;23.00;11.60;;;;;;;;;;6273283;22;20227;-53
2023/12/01 08:38:55;;;;;;;19.50;11.57;;;;;;;;;;6272457;22;20141;-51
2023/12/01 08:41:22;;;;;;;19.67;11.63;;;;;;;;;;6273364;22;20164;-52
2023/12/01 08:43:48;;;;;;;20.90;11.87;;;;;;;;;;6272790;22;20168;-54
2023/12/01 08:46:14;;;;;;;20.47;11.87;;;;;;;;;;6272849;22;20124;-53
2023/12/01 08:48:41;;;;;;;20.10;11.20;;;;;;;;;;6270710;22;20145;-51
2023/12/01 08:51:07;;;;;;;19.60;11.43;;;;;;;;;;6270758;22;20239;-52
2023/12/01 08:53:33;;;;;;;20.23;11.07;;;;;;;;;;6268375;22;20219;-52
2023/12/01 08:55:59;;;;;;;20.33;12.67;;;;;;;;;;6261318;22;20306;-55
2023/12/01 08:58:25;;;;;;;18.70;11.33;;;;;;;;;;6259383;22;20133;-55
2023/12/01 09:00:51;;;;;;;25.47;13.03;;;;;;;;;;6260152;22;20340;-54
2023/12/01 09:03:18;;;;;;;19.77;11.77;;;;;;;;;;6261821;22;20217;-53
2023/12/01 09:05:45;;;;;;;21.30;12.27;;;;;;;;;;6262559;22;20168;-50
2023/12/01 09:08:12;;;;;;;24.40;12.53;;;;;;;;;;6265749;22;20141;-55
2023/12/01 09:10:38;;;;;;;21.70;12.20;;;;;;;;;;6266715;22;20235;-50
2023/12/01 09:13:05;;;;;;;21.23;11.57;;;;;;;;;;6263610;22;20435;-52
2023/12/01 09:15:31;;;;;;;21.03;11.57;;;;;;;;;;6265322;22;20144;-56
2023/12/01 09:17:57;;;;;;;20.67;12.30;;;;;;;;;;6271391;22;20693;-56
2023/12/01 09:20:24;;;;;;;20.60;12.40;;;;;;;;;;6271824;22;20507;-55
2023/12/01 09:22:50;;;;;;;18.73;11.37;;;;;;;;;;6271563;22;20136;-55
2023/12/01 09:25:19;;;;;;;22.47;13.10;;;;;;;;;;6271694;22;20144;-52
2023/12/01 09:27:47;;;;;;;20.10;12.17;;;;;;;;;;6273571;22;20136;-50
2023/12/01 09:30:16;;;;;;;26.63;12.53;;;;;;;;;;6274149;22;20152;-55
2023/12/01 09:32:43;;;;;;;22.00;13.37;;;;;;;;;;6274818;22;20148;-49
2023/12/01 09:35:10;;;;;;;20.17;11.77;;;;;;;;;;6275543;22;20194;-53
2023/12/01 09:37:36;;;;;;;21.57;13.30;;;;;;;;;;6274569;22;20215;-52
2023/12/01 09:40:03;;;;;;;20.70;13.23;;;;;;;;;;6274848;22;20254;-53
2023/12/01 09:42:33;;;;;;;22.43;13.73;;;;;;;;;;6273799;22;20509;-54
2023/12/01 09:45:01;;;;;;;20.63;13.27;;;;;;;;;;6273125;22;20194;-51
2023/12/01 09:47:31;;;;;;;19.17;13.17;;;;;;;;;;6272723;22;20152;-51
2023/12/01 09:49:57;;;;;;;21.27;13.57;;;;;;;;;;6273470;22;20140;-55
2023/12/01 09:52:24;;;;;;;20.50;13.50;;;;;;;;;;6273256;22;20209;-50
2023/12/01 09:54:50;;;;;;;16.27;11.73;;;;;;;;;;6271959;22;20518;-52
2023/12/01 09:57:16;;;;;;;18.40;12.03;;;;;;;;;;6272432;22;20143;-55
2023/12/01 09:59:42;;;;;;;17.83;11.87;;;;;;;;;;6285695;22;20252;-55
2023/12/01 10:02:09;;;;;;;16.57;11.87;;;;;;;;;;6275940;22;20143;-51
2023/12/01 10:04:35;;;;;;;19.30;13.33;;;;;;;;;;6301227;22;20268;-55
2023/12/01 10:07:03;;;;;;;17.63;13.03;;;;;;;;;;6276937;22;20144;-53
2023/12/01 10:09:32;;;;;;;21.23;13.33;;;;;;;;;;6303513;22;20127;-49
2023/12/01 10:12:12;;;;;;;20.67;13.03;;;;;;;;;;6277094;22;20140;-51
2023/12/01 10:14:41;;;;;;;21.73;14.57;;;;;;;;;;6250716;22;20147;-52
2023/12/01 10:17:09;;;;;;;18.90;12.37;;;;;;;;;;6302076;22;20196;-53
2023/12/01 10:19:47;;;;;;;19.03;12.47;;;;;;;;;;6302081;22;20162;-53
2023/12/01 10:22:16;;;;;;;18.80;12.93;;;;;;;;;;6302257;22;20127;-51
2023/12/01 10:25:04;;;;;;;22.20;13.27;;;;;;;;;;6272999;22;20556;-52
2023/12/01 10:27:31;;;;;;;19.87;11.70;;;;;;;;;;6300318;22;20202;-53
2023/12/01 10:30:12;;;;;;;18.60;12.10;;;;;;;;;;6278791;22;20201;-55
2023/12/01 10:32:38;;;;;;;18.23;11.50;;;;;;;;;;6250704;22;20162;-54
2023/12/01 10:35:05;;;;;;;18.27;11.70;;;;;;;;;;6276703;22;20151;-54
2023/12/01 10:37:31;;;;;;;15.27;9.87;;;;;;;;;;6303910;22;20404;-54
2023/12/01 10:40:05;;;;;;;17.07;11.53;;;;;;;;;;6277443;22;20526;-61
2023/12/01 10:42:34;;;;;;;17.33;11.93;;;;;;;;;;6303892;22;20120;-61
2023/12/01 10:45:04;;;;;;;17.40;11.40;;;;;;;;;;6276742;22;20162;-61
2023/12/01 10:47:34;;;;;;;17.70;11.20;;;;;;;;;;6275430;22;20161;-50
2023/12/01 10:50:02;;;;;;;17.43;10.70;;;;;;;;;;6301862;22;20124;-49
2023/12/01 10:52:28;;;;;;;16.70;10.57;;;;;;;;;;6250480;22;20155;-49
2023/12/01 10:54:56;;;;;;;22.47;12.43;;;;;;;;;;6276029;22;20438;-50
2023/12/01 10:57:28;;;;;;;16.17;11.17;;;;;;;;;;6278118;22;20177;-50
2023/12/01 10:59:56;;;;;;;18.30;11.77;;;;;;;;;;6271718;22;20203;-49
2023/12/01 11:02:25;;;;;;;16.77;11.43;;;;;;;;;;6271128;22;20503;-52
2023/12/01 11:04:54;;;;;;;16.07;10.93;;;;;;;;;;6269705;22;20828;-54
2023/12/01 11:07:38;;;;;;;17.67;10.73;;;;;;;;;;6270819;22;20151;-54
2023/12/01 11:10:23;;;;;;;17.17;10.20;;;;;;;;;;6272234;22;20727;-54
2023/12/01 11:13:03;;;;;;;16.93;10.67;;;;;;;;;;6271173;22;20132;-52
2023/12/01 11:15:33;;;;;;;16.03;10.60;;;;;;;;;;6272174;22;20202;-54
2023/12/01 11:18:00;;;;;;;14.20;10.20;;;;;;;;;;6270602;22;20430;-53
2023/12/01 11:20:32;;;;;;;15.43;10.07;;;;;;;;;;6272970;22;20508;-54
2023/12/01 11:23:05;;;;;;;15.20;9.23;;;;;;;;;;6272107;22;20274;-53
2023/12/01 11:25:50;;;;;;;14.53;9.40;;;;;;;;;;6271021;22;20125;-55
2023/12/01 11:28:27;;;;;;;15.97;10.80;;;;;;;;;;6271531;22;20124;-54
2023/12/01 11:31:13;;;;;;;14.57;9.80;;;;;;;;;;6270246;22;20167;-52
2023/12/01 11:33:53;;;;;;;15.47;10.10;;;;;;;;;;6272176;22;20152;-55
2023/12/01 11:36:24;;;;;;;13.50;8.73;;;;;;;;;;6269445;22;20140;-52
2023/12/01 11:39:20;;;;;;;13.43;8.67;;;;;;;;;;6270039;22;20235;-49
2023/12/01 11:42:04;;;;;;;15.90;9.93;;;;;;;;;;6270058;22;20168;-54
2023/12/01 11:44:38;;;;;;;13.97;8.90;;;;;;;;;;6270519;22;20132;-51
2023/12/01 11:47:05;;;;;;;14.60;8.93;;;;;;;;;;6271859;22;20190;-53
2023/12/01 11:49:43;;;;;;;20.40;10.27;;;;;;;;;;6269279;22;20148;-52
2023/12/01 11:52:13;;;;;;;13.20;8.47;;;;;;;;;;6269971;22;20681;-54
2023/12/01 11:54:41;;;;;;;11.27;7.80;;;;;;;;;;6269497;22;20132;-53
2023/12/01 11:57:11;;;;;;;13.10;7.27;;;;;;;;;;6269887;22;20194;-49
2023/12/01 11:59:37;;;;;;;11.57;7.77;;;;;;;;;;6269725;22;20202;-51
2023/12/01 12:02:03;;;;;;;12.10;7.30;;;;;;;;;;6271549;22;20289;-54
2023/12/01 12:04:30;;;;;;;9.37;6.07;;;;;;;;;;6270630;22;20168;-52
2023/12/01 12:07:00;;;;;;;9.47;6.47;;;;;;;;;;6270441;22;20141;-53
2023/12/01 12:09:35;;;;;;;7.83;6.13;;;;;;;;;;6270571;22;20120;-54
2023/12/01 12:12:01;;;;;;;8.37;6.17;;;;;;;;;;6269334;22;20150;-52
2023/12/01 12:14:28;;;;;;;11.70;6.47;;;;;;;;;;6271308;22;20424;-54
2023/12/01 12:16:56;;;;;;;19.93;7.00;;;;;;;;;;6270193;22;20176;-54
2023/12/01 12:19:22;;;;;;;9.13;6.30;;;;;;;;;;6270795;22;20137;-51
2023/12/01 12:21:50;;;;;;;11.97;6.17;;;;;;;;;;6245265;22;20206;-53
2023/12/01 12:24:17;;;;;;;7.50;5.40;;;;;;;;;;6269596;22;20132;-51
2023/12/01 12:26:55;;;;;;;8.83;4.87;;;;;;;;;;6270488;22;20698;-49
2023/12/01 12:29:23;;;;;;;8.23;5.07;;;;;;;;;;6269860;22;20143;-51
2023/12/01 12:31:51;;;;;;;6.77;4.90;;;;;;;;;;6269166;22;20144;-52
2023/12/01 12:34:18;;;;;;;8.77;5.53;;;;;;;;;;6269658;22;20133;-52
2023/12/01 12:36:46;;;;;;;8.37;5.53;;;;;;;;;;6269420;22;20184;-54
2023/12/01 12:39:16;;;;;;;8.03;4.90;;;;;;;;;;6268983;22;20242;-53
2023/12/01 12:41:50;;;;;;;7.20;5.37;;;;;;;;;;6268054;22;20225;-51
2023/12/01 12:44:17;;;;;;;7.30;4.83;;;;;;;;;;6266895;22;20136;-55
2023/12/01 12:46:58;;;;;;;6.57;5.33;;;;;;;;;;6267868;22;20140;-51
2023/12/01 12:49:25;;;;;;;8.97;6.13;;;;;;;;;;6267712;22;20414;-53
2023/12/01 12:51:53;;;;;;;6.83;5.27;;;;;;;;;;6266641;22;20152;-56
2023/12/01 12:54:20;;;;;;;6.13;4.50;;;;;;;;;;6267734;22;20153;-53
2023/12/01 12:56:53;;;;;;;6.93;4.53;;;;;;;;;;6268331;22;20151;-52
2023/12/01 12:59:19;;;;;;;5.90;4.60;;;;;;;;;;6267797;22;20237;-56
2023/12/01 13:01:46;;;;;;;7.83;5.30;;;;;;;;;;6267045;22;20190;-55
2023/12/01 13:04:13;;;;;;;7.30;5.37;;;;;;;;;;6264119;22;20721;-50
2023/12/01 13:06:39;;;;;;;6.83;4.97;;;;;;;;;;6265711;22;20140;-56
2023/12/01 13:09:08;;;;;;;9.50;5.83;;;;;;;;;;6265854;22;20254;-50
2023/12/01 13:11:34;;;;;;;7.17;5.60;;;;;;;;;;6265274;22;20148;-54
2023/12/01 13:14:00;;;;;;;9.93;5.13;;;;;;;;;;6263971;22;20207;-54
2023/12/01 13:16:28;;;;;;;12.00;6.37;;;;;;;;;;6262802;22;20298;-54
2023/12/01 13:18:54;;;;;;;9.27;6.30;;;;;;;;;;6265981;22;20205;-52
2023/12/01 13:21:21;;;;;;;8.73;5.80;;;;;;;;;;6263237;22;20167;-55
2023/12/01 13:23:47;;;;;;;6.97;5.47;;;;;;;;;;6264041;22;20140;-51
2023/12/01 13:26:15;;;;;;;9.83;6.53;;;;;;;;;;6265676;22;20150;-51
2023/12/01 13:28:42;;;;;;;7.07;5.40;;;;;;;;;;6268519;22;20132;-54
2023/12/01 13:31:08;;;;;;;8.60;6.00;;;;;;;;;;6271038;22;20140;-57
2023/12/01 13:33:35;;;;;;;9.13;5.50;;;;;;;;;;6268838;22;20230;-54
2023/12/01 13:36:01;;;;;;;6.70;5.13;;;;;;;;;;6271606;22;20231;-52
2023/12/01 13:38:27;;;;;;;6.73;5.20;;;;;;;;;;6270938;22;20231;-55
2023/12/01 13:40:54;;;;;;;7.57;5.57;;;;;;;;;;6271147;22;20167;-55
2023/12/01 13:43:20;;;;;;;6.37;5.07;;;;;;;;;;6269784;22;20136;-53
2023/12/01 13:45:46;;;;;;;7.57;6.10;;;;;;;;;;6266845;22;20124;-50
2023/12/01 13:48:13;;;;;;;9.13;6.30;;;;;;;;;;6264987;22;20148;-54
2023/12/01 13:50:40;;;;;;;7.77;5.77;;;;;;;;;;6265769;22;20128;-54
2023/12/01 13:53:07;;;;;;;9.93;5.70;;;;;;;;;;6266310;22;20708;-55
2023/12/01 13:55:35;;;;;;;12.03;7.03;;;;;;;;;;6266559;22;20168;-53
2023/12/01 13:58:03;;;;;;;10.07;7.13;;;;;;;;;;6266974;22;20156;-53
2023/12/01 14:00:29;;;;;;;7.87;5.73;;;;;;;;;;6265809;22;20203;-54
2023/12/01 14:02:55;;;;;;;9.13;6.63;;;;;;;;;;6266885;22;20215;-52
2023/12/01 14:05:21;;;;;;;8.83;6.17;;;;;;;;;;6269776;22;20233;-55
2023/12/01 14:07:47;;;;;;;9.20;6.13;;;;;;;;;;6269204;22;20217;-50
2023/12/01 14:10:15;;;;;;;10.00;7.00;;;;;;;;;;6268530;22;20155;-52
2023/12/01 14:12:42;;;;;;;8.97;6.80;;;;;;;;;;6266162;22;20140;-54
2023/12/01 14:15:09;;;;;;;9.63;6.80;;;;;;;;;;6266173;22;20147;-51
2023/12/01 14:17:35;;;;;;;9.67;6.27;;;;;;;;;;6267901;22;20174;-54
2023/12/01 14:20:05;;;;;;;10.03;6.73;;;;;;;;;;6266396;22;20546;-51
2023/12/01 14:22:32;;;;;;;9.63;6.47;;;;;;;;;;6266515;22;20187;-52
2023/12/01 14:24:59;;;;;;;10.33;6.67;;;;;;;;;;6268270;22;20136;-55
2023/12/01 14:27:27;;;;;;;8.63;5.80;;;;;;;;;;6266897;22;20136;-50
2023/12/01 14:29:54;;;;;;;8.57;6.30;;;;;;;;;;6266273;22;20144;-54